Updated19/06/2019 19:55 
 

GeoURL
free counters
Scottish Weather Network UK Weather Network Cumulus Top Weather Sites

Peebles Weather - Nearby METAR Reports

Raw Data, Raw Data Expanded

Ignore low humidity and Dew Point values. Something wrong with the sensor.
Daytime temperatures are in direct sunlight so may be higher than official air temperature values.
As with any other website, we log your IP address and browser type in the server logs for diagnostic reasons. Cookies are used to record visit time and gauges preferences. No personal information is stored or processed.

All times are in local time (GMT, or BST in summer) unless specified.

2019/06/19 18:20 EGPH 191820Z 25008KT CAVOK 17/08 Q1005
15.8°C 0.0 mm 0.0 mm 0.0 mm 2.5 mph 4.5 mph 1001.1 hPa 67% X-Ray Solar Flare Level
Planetary K-Index
Planetary K-Index History
Station Warn Rain Snow Flood Wind Ltng Heat Cold Glob Moon Temp Rain 1h Rain Wed Rain 24h Wind 10m Gust Pressure Hum Proton Levels

0.245 m Waning Gibbous Cool F1-NW F: A: Kp:0 SSN:0

METAR Reports

 

EGPH - Edinburgh Airpor, United Kingdom
Distance from station: NNW 22mi, 36km
Updated: 19/06/2019 19:20
Clear
Clear
 Wind from WSW
Wind: WSW 9 mph , 15 km/h
Temperature: 17°C
Dew Point: 8°C
Humidity: 56%
Barometer: 1005 hPa
Summary: Clear
Visibility: greater than 7 miles , 10 km
2019/06/19 18:20 EGPH 191820Z 25008KT CAVOK 17/08 Q1005
EGOM - Spadeadam, United Kingdom
Distance from station: SSE 49mi, 79km
Updated: 19/06/2019 18:50
Clear
Clear
 Wind from W
Wind: W 15 mph , 24 km/h
Temperature: 15°C
Dew Point: 7°C
Humidity: 59%
Barometer: 1006 hPa
Clouds: Clear
Visibility: 6 miles , 10 km
2019/06/19 17:50 EGOM 191750Z AUTO 26013KT 9999 NCD 15/07 Q1006
 
EGNC - Carlisle, United Kingdom
Distance from station: SSE 51mi, 82km
Updated: 17/06/2019 17:50
NOT Current
Few Clouds
Few Clouds
 Wind from SW
Wind: SW 16 mph , 26 km/h
Temperature: 18°C
Dew Point: 8°C
Humidity: 52%
Barometer: 1011 hPa
Clouds: Few Clouds
Visibility: 6 miles , 10 km
Cloud details: Few Clouds 1128 m
2019/06/17 16:50 EGNC 171650Z 23014KT 200V270 9999 FEW037 18/08 Q1011
EGPF - Glasgow Airport, United Kingdom
Distance from station: WNW 51mi, 82km
Updated: 19/06/2019 19:50
Light rain, Mostly cloudy
Light rain, Mostly cloudy
 Wind from W
Wind: W 10 mph , 17 km/h
Temperature: 12°C
Dew Point: 10°C
Humidity: 88%
Barometer: 1006 hPa
Summary: Light rain
Clouds: Mostly cloudy
Visibility: 4 miles , 7 km
Cloud details: Few Clouds 853 m
Mostly cloudy 1006 m
Mostly cloudy 1463 m
2019/06/19 18:50 EGPF 191850Z 27009KT 7000 -RA FEW028TCU BKN033 BKN048 12/10 Q1006
 
EGQL - Leuchars Raf, United Kingdom
Distance from station: NNE 53mi, 85km
Updated: 19/06/2019 18:50
Clear
Clear
 Wind from W
Wind: W 15 mph , 24 km/h
Temperature: 17°C
Dew Point: 7°C
Humidity: 52%
Barometer: 1004 hPa
Clouds: Clear
Visibility: 6 miles , 10 km
2019/06/19 17:50 EGQL 191750Z AUTO 27013KT 9999 NCD 17/07 Q1004
EGPK - Prestwick(Civ/Na, United Kingdom
Distance from station: W 55mi, 89km
Updated: 19/06/2019 19:50
Light rain, Mostly cloudy
Light rain, Mostly cloudy
 Wind from WSW
Wind: WSW 9 mph , 15 km/h
Temperature: 12°C
Dew Point: 11°C
Humidity: 94%
Barometer: 1006 hPa
Summary: Light rain
Clouds: Mostly cloudy
Visibility: 5 miles , 8 km
Cloud details: Few Clouds 427 m
Mostly cloudy 732 m
2019/06/19 18:50 EGPK 191850Z 25008KT 8000 -RA FEW014 BKN024 12/11 Q1006
 
EGPN - Dundee/Riverside, United Kingdom
Distance from station: N 56mi, 90km
Updated: 19/06/2019 19:20
Few Clouds
Few Clouds
 Wind from WNW
Wind: WNW 13 mph , 20 km/h
Temperature: 17°C
Dew Point: 9°C
Humidity: 59%
Barometer: 1004 hPa
Clouds: Few Clouds
Visibility: 6 miles , 10 km
Cloud details: Few Clouds 1219 m
2019/06/19 18:20 EGPN 191820Z 29011KT 9999 FEW040 17/09 Q1004
EGNT - Newcastle, United Kingdom
Distance from station: SE 72mi, 116km
Updated: 19/06/2019 19:50
Few Clouds
Few Clouds
 Wind from W
Wind: W 13 mph , 20 km/h
Temperature: 16°C
Dew Point: 8°C
Humidity: 59%
Barometer: 1005 hPa
Clouds: Few Clouds
Visibility: 6 miles , 10 km
Cloud details: Few Clouds 1219 m
2019/06/19 18:50 EGNT 191850Z 26011KT 9999 FEW040 16/08 Q1005
 
EGNV - Tees-Side, United Kingdom
Distance from station: SE 104mi, 168km
Updated: 19/06/2019 19:50
Few Clouds
Few Clouds
 Wind from SW
Wind: SW 7 mph , 11 km/h
Temperature: 18°C
Dew Point: 10°C
Humidity: 60%
Barometer: 1006 hPa
Clouds: Few Clouds
Visibility: 6 miles , 10 km
Cloud details: Few Clouds 1402 m
2019/06/19 18:50 EGNV 191850Z 23006KT 200V270 9999 FEW046 18/10 Q1006
EGPD - Aberdeen/Dyce, United Kingdom
Distance from station: NNE 114mi, 183km
Updated: 19/06/2019 19:50
Clear
Clear
 Wind from S
Wind: S 9 mph , 15 km/h
Temperature: 15°C
Dew Point: 11°C
Humidity: 77%
Barometer: 1004 hPa
Clouds: Clear
Visibility: 6 miles , 10 km
2019/06/19 18:50 EGPD 191850Z AUTO 17008KT 9999 NCD 15/11 Q1004
 
EGNS - Isle Of Man/Rona, United Kingdom
Distance from station: SSW 122mi, 197km
Updated: 19/06/2019 17:50
NOT Current
Few Clouds
Few Clouds
 Wind from SW
Wind: SW 13 mph , 20 km/h
Temperature: 14°C
Dew Point: 10°C
Humidity: 77%
Barometer: 1007 hPa
Clouds: Few Clouds
Visibility: 6 miles , 10 km
Cloud details: Few Clouds 762 m
2019/06/19 16:50 EGNS 191650Z 22011KT 9999 FEW025 14/10 Q1007 NOSIG
EGAC - Belfast Harbour, United Kingdom
Distance from station: WSW 128mi, 206km
Updated: 19/06/2019 19:50
Few Clouds
Few Clouds
 Wind from SE
Wind: SE 7 mph , 11 km/h
Temperature: 13°C
Dew Point: 11°C
Humidity: 88%
Barometer: 1006 hPa
Clouds: Few Clouds
Visibility: 6 miles , 10 km
Cloud details: Few Clouds 1433 m
2019/06/19 18:50 EGAC 191850Z AUTO 14006KT 9999 FEW047/// 13/11 Q1006
 
EGPE - Inverness/Dalcro, United Kingdom
Distance from station: NNW 134mi, 215km
Updated: 19/06/2019 19:50
Partly cloudy
Partly cloudy
 Wind from SW
Wind: SW 12 mph , 19 km/h
Temperature: 14°C
Dew Point: 8°C
Humidity: 67%
Barometer: 1004 hPa
Clouds: Partly cloudy
Visibility: 6 miles , 10 km
Cloud details: Few Clouds 518 m
Partly cloudy 1097 m
2019/06/19 18:50 EGPE 191850Z 22010KT 9999 FEW017 SCT036 14/08 Q1004
XHTML 1.1 | CSS